Time;durP1;ratioP1;P1;durP2;ratioP2;P2;SDS_P1;SDS_P2;PMS_P1;PMS_P2;Temp;Humidity;BMP_temperature;BMP_pressure;BME280_temperature;BME280_humidity;BME280_pressure;Samples;Min_cycle;Max_cycle;Signal;HPM_P1;HPM_P2
2024/02/11 00:00:41;;;;;;;59.30;28.23;;;9.10;99.90;;;;;;5061006;28;20033;-95
2024/02/11 00:03:15;;;;;;;55.17;25.05;;;9.10;99.90;;;;;;5074185;28;20021;-94
2024/02/11 00:05:44;;;;;;;53.65;26.65;;;9.10;99.90;;;;;;5076175;28;20025;-95
2024/02/11 00:08:11;;;;;;;55.25;25.75;;;9.20;99.90;;;;;;5076563;28;20025;-95
2024/02/11 00:10:37;;;;;;;67.70;27.25;;;9.10;99.90;;;;;;5063707;28;20034;-94
2024/02/11 00:13:04;;;;;;;63.30;28.20;;;9.10;99.90;;;;;;5050558;28;20012;-92
2024/02/11 00:15:38;;;;;;;60.15;27.40;;;9.10;99.90;;;;;;5038223;28;20036;-93
2024/02/11 00:18:07;;;;;;;62.00;28.15;;;9.20;99.90;;;;;;5052926;28;20021;-95
2024/02/11 00:20:33;;;;;;;63.08;26.38;;;9.20;99.90;;;;;;5035143;28;20032;-94
2024/02/11 00:23:00;;;;;;;61.30;27.88;;;9.20;99.90;;;;;;5049968;28;20029;-95
2024/02/11 00:25:27;;;;;;;64.97;29.08;;;9.20;99.90;;;;;;5050355;28;20033;-93
2024/02/11 00:27:54;;;;;;;61.65;28.23;;;9.20;99.90;;;;;;5069879;28;20080;-94
2024/02/11 00:30:23;;;;;;;69.70;28.50;;;9.20;99.90;;;;;;5051818;28;20029;-93
2024/02/11 00:32:48;;;;;;;63.92;28.65;;;9.10;99.90;;;;;;5069617;28;20021;-94
2024/02/11 00:35:17;;;;;;;72.18;28.55;;;9.20;99.90;;;;;;5050966;28;20039;-95
2024/02/11 00:37:44;;;;;;;69.93;31.02;;;9.20;99.90;;;;;;5050903;28;20021;-93
2024/02/11 00:40:10;;;;;;;74.68;32.15;;;9.20;99.90;;;;;;5050776;28;20092;-94
2024/02/11 00:42:36;;;;;;;82.30;31.48;;;9.20;99.90;;;;;;5031623;28;20041;-94
2024/02/11 00:45:06;;;;;;;75.78;32.67;;;9.20;99.90;;;;;;5049270;28;20472;-94
2024/02/11 00:47:32;;;;;;;66.32;29.95;;;9.20;99.90;;;;;;5069720;28;20037;-94
2024/02/11 00:49:58;;;;;;;73.40;30.08;;;9.20;99.90;;;;;;5070536;28;20081;-95
2024/02/11 00:52:27;;;;;;;77.95;32.20;;;9.30;99.90;;;;;;5059659;28;20026;-91
2024/02/11 00:54:53;;;;;;;72.97;31.58;;;9.30;99.90;;;;;;5055686;28;20036;-93
2024/02/11 00:57:20;;;;;;;73.30;30.48;;;9.30;99.90;;;;;;5055032;28;20016;-95
2024/02/11 00:59:50;;;;;;;76.03;31.00;;;9.30;99.90;;;;;;5053481;28;20029;-95
2024/02/11 01:02:19;;;;;;;77.60;30.95;;;9.30;99.90;;;;;;5052636;28;20052;-94
2024/02/11 01:04:45;;;;;;;84.10;32.80;;;9.30;99.90;;;;;;5039766;28;20041;-94
2024/02/11 01:07:14;;;;;;;81.35;34.17;;;9.30;99.90;;;;;;5043858;28;20040;-94
2024/02/11 01:10:00;;;;;;;80.07;33.28;;;9.40;99.90;;;;;;5063889;28;20037;-93
2024/02/11 01:12:26;;;;;;;74.85;31.00;;;9.40;99.90;;;;;;5035748;28;20033;-94
2024/02/11 01:14:55;;;;;;;80.28;32.95;;;9.30;99.90;;;;;;5050984;28;20043;-94
2024/02/11 01:17:26;;;;;;;62.88;27.00;;;9.30;99.90;;;;;;5043827;28;20101;-93
2024/02/11 01:19:52;;;;;;;55.33;24.52;;;9.40;99.90;;;;;;5060980;28;20037;-95
2024/02/11 01:22:19;;;;;;;38.05;16.13;;;9.40;99.90;;;;;;5039218;28;20097;-95
2024/02/11 01:24:47;;;;;;;21.15;10.02;;;9.30;99.90;;;;;;5038985;28;20023;-94
2024/02/11 01:27:19;;;;;;;11.30;5.22;;;9.10;99.90;;;;;;5048554;28;20025;-96
2024/02/11 01:29:46;;;;;;;3.47;2.20;;;9.00;99.90;;;;;;5052402;28;20032;-96
2024/02/11 01:32:23;;;;;;;4.20;2.22;;;8.70;99.90;;;;;;5065143;28;20005;-94
2024/02/11 01:35:07;;;;;;;2.20;1.65;;;8.50;99.90;;;;;;5065648;28;20410;-96
2024/02/11 01:37:40;;;;;;;5.80;2.35;;;8.30;99.90;;;;;;5055728;28;20048;-94
2024/02/11 01:40:21;;;;;;;2.30;1.13;;;8.10;99.90;;;;;;5055450;28;20016;-95
2024/02/11 01:42:48;;;;;;;2.95;1.50;;;8.00;99.90;;;;;;5071351;28;20096;-94
2024/02/11 01:45:39;;;;;;;1.77;1.40;;;8.00;99.90;;;;;;5031505;28;20013;-92
2024/02/11 01:48:33;;;;;;;3.58;2.35;;;7.90;99.90;;;;;;5028653;28;20021;-96
2024/02/11 01:51:03;;;;;;;5.30;2.55;;;7.90;99.90;;;;;;5052277;28;20049;-94
2024/02/11 01:53:30;;;;;;;2.17;1.15;;;7.90;99.90;;;;;;5065521;28;20036;-94
2024/02/11 01:56:04;;;;;;;3.38;1.90;;;7.90;99.90;;;;;;5047107;28;20092;-95
2024/02/11 01:58:36;;;;;;;2.55;1.20;;;7.80;99.90;;;;;;5056251;28;20024;-96
2024/02/11 02:01:29;;;;;;;1.75;1.20;;;7.80;99.90;;;;;;5032744;28;20029;-96
2024/02/11 02:03:59;;;;;;;1.95;1.65;;;7.80;99.90;;;;;;5040570;28;20029;-94
2024/02/11 02:06:43;;;;;;;2.03;0.82;;;7.70;99.90;;;;;;5036197;28;20041;-95
2024/02/11 02:09:13;;;;;;;1.83;1.73;;;7.70;99.90;;;;;;5053085;28;20025;-95
2024/02/11 02:11:39;;;;;;;1.02;0.93;;;7.70;99.90;;;;;;5051880;28;20017;-93
2024/02/11 02:16:45;;;;;;;0.95;0.93;;;7.70;99.90;;;;;;5043376;22;20061;-91
2024/02/11 02:19:12;;;;;;;1.38;1.23;;;7.50;99.90;;;;;;5029515;28;20254;-90
2024/02/11 02:21:54;;;;;;;0.98;0.88;;;7.50;99.90;;;;;;5036554;28;20029;-91
2024/02/11 02:24:20;;;;;;;1.92;1.05;;;7.50;99.90;;;;;;5037658;28;20032;-91
2024/02/11 02:26:46;;;;;;;1.23;1.00;;;7.50;99.90;;;;;;5037541;28;20033;-92
2024/02/11 02:29:12;;;;;;;3.13;1.58;;;7.40;99.90;;;;;;5039601;28;20029;-91
2024/02/11 02:31:38;;;;;;;1.40;1.17;;;7.40;99.90;;;;;;5039128;28;20369;-92
2024/02/11 02:34:03;;;;;;;2.22;2.03;;;7.40;99.90;;;;;;5034642;28;20113;-91
2024/02/11 02:36:29;;;;;;;4.20;1.85;;;7.30;99.90;;;;;;5035434;28;20022;-94
2024/02/11 02:38:55;;;;;;;2.67;2.10;;;7.30;99.90;;;;;;5037120;28;20025;-92
2024/02/11 02:41:22;;;;;;;3.08;1.92;;;7.30;99.90;;;;;;5040085;28;20073;-91
2024/02/11 02:43:47;;;;;;;2.70;1.70;;;7.30;99.90;;;;;;5038649;28;20026;-93
2024/02/11 02:46:13;;;;;;;4.30;1.75;;;7.30;99.90;;;;;;5037458;28;20071;-91
2024/02/11 02:48:39;;;;;;;2.17;1.45;;;7.30;99.90;;;;;;5012385;28;20506;-91
2024/02/11 02:51:05;;;;;;;2.55;1.75;;;7.30;99.90;;;;;;5037241;28;20034;-91
2024/02/11 02:53:31;;;;;;;2.22;1.45;;;7.30;99.90;;;;;;5036861;28;20029;-94
2024/02/11 02:55:57;;;;;;;3.58;1.58;;;7.30;99.90;;;;;;5038090;28;20026;-91
2024/02/11 02:58:23;;;;;;;3.28;1.98;;;7.30;99.90;;;;;;5028228;28;20029;-90
2024/02/11 03:00:49;;;;;;;2.78;1.88;;;7.20;99.90;;;;;;5036669;28;20025;-91
2024/02/11 03:03:17;;;;;;;2.45;2.13;;;7.20;99.90;;;;;;5016134;28;20104;-90
2024/02/11 03:05:45;;;;;;;3.05;2.30;;;7.20;99.90;;;;;;5037007;28;20072;-92
2024/02/11 03:08:12;;;;;;;3.13;1.45;;;7.20;99.90;;;;;;5019719;28;20033;-92
2024/02/11 03:10:38;;;;;;;3.00;2.42;;;7.20;99.90;;;;;;5030584;28;20044;-90
2024/02/11 03:13:04;;;;;;;3.85;2.38;;;7.20;99.90;;;;;;5033847;28;20101;-90
2024/02/11 03:15:30;;;;;;;2.83;2.33;;;7.10;99.90;;;;;;5040436;28;20025;-92
2024/02/11 03:17:55;;;;;;;2.60;1.92;;;7.10;99.90;;;;;;5042848;28;20085;-92
2024/02/11 03:20:21;;;;;;;3.47;2.38;;;7.10;99.90;;;;;;5046270;28;20034;-94
2024/02/11 03:22:47;;;;;;;3.15;2.05;;;7.00;99.90;;;;;;5042047;28;20079;-92
2024/02/11 03:25:14;;;;;;;3.35;2.25;;;7.00;99.90;;;;;;5018952;28;20377;-92
2024/02/11 03:27:40;;;;;;;3.58;2.20;;;7.00;99.90;;;;;;5033353;28;20026;-91
2024/02/11 03:30:08;;;;;;;5.35;2.63;;;6.90;99.90;;;;;;5037014;28;20056;-91
2024/02/11 03:32:34;;;;;;;3.95;2.20;;;6.90;99.90;;;;;;5036761;28;20052;-91
2024/02/11 03:35:00;;;;;;;3.63;2.28;;;6.90;99.90;;;;;;5025200;28;20002;-91
2024/02/11 03:37:32;;;;;;;4.25;2.75;;;6.90;99.90;;;;;;5043322;28;20072;-95
2024/02/11 03:39:57;;;;;;;5.43;3.58;;;6.80;99.90;;;;;;5039451;28;20033;-92
2024/02/11 03:42:23;;;;;;;7.07;2.28;;;6.80;99.90;;;;;;5039453;28;20030;-91
2024/02/11 03:44:49;;;;;;;5.40;2.17;;;6.80;99.90;;;;;;5035057;28;20034;-91
2024/02/11 03:47:15;;;;;;;3.05;2.40;;;6.80;99.90;;;;;;5037462;28;20029;-91
2024/02/11 03:49:40;;;;;;;4.60;3.40;;;6.80;99.90;;;;;;5021837;28;20079;-91
2024/02/11 03:52:06;;;;;;;9.02;3.38;;;6.70;99.90;;;;;;5021961;28;20036;-92
2024/02/11 03:54:32;;;;;;;5.20;2.75;;;6.70;99.90;;;;;;5040169;28;20025;-90
2024/02/11 03:56:57;;;;;;;4.68;2.17;;;6.70;99.90;;;;;;5038587;28;20017;-91
2024/02/11 03:59:23;;;;;;;4.20;2.55;;;6.70;99.90;;;;;;5039110;28;20076;-91
2024/02/11 04:01:49;;;;;;;3.78;2.55;;;6.70;99.90;;;;;;5038432;28;20045;-90
2024/02/11 04:04:16;;;;;;;5.30;2.72;;;6.60;99.90;;;;;;5039236;28;20088;-92
2024/02/11 04:06:44;;;;;;;5.03;2.60;;;6.60;99.90;;;;;;5038798;28;20626;-91
2024/02/11 04:09:14;;;;;;;5.30;2.58;;;6.60;99.90;;;;;;5020837;28;20107;-91
2024/02/11 04:11:41;;;;;;;5.03;3.08;;;6.60;99.90;;;;;;5034907;28;20021;-91
2024/02/11 04:14:09;;;;;;;4.97;2.10;;;6.60;99.90;;;;;;5036739;28;20499;-91
2024/02/11 04:16:34;;;;;;;4.95;3.10;;;6.60;99.90;;;;;;5039467;28;20025;-90
2024/02/11 04:19:01;;;;;;;3.13;2.47;;;6.50;99.90;;;;;;5038661;28;20033;-91
2024/02/11 04:21:35;;;;;;;4.38;2.70;;;6.50;99.90;;;;;;5020087;28;20073;-90
2024/02/11 04:24:01;;;;;;;4.32;3.50;;;6.50;99.90;;;;;;5039251;28;20123;-90
2024/02/11 04:26:26;;;;;;;2.97;2.25;;;6.50;99.90;;;;;;5038998;28;20383;-90
2024/02/11 04:28:53;;;;;;;4.85;2.75;;;6.50;99.90;;;;;;5040554;28;20108;-92
2024/02/11 04:31:19;;;;;;;4.18;2.70;;;6.50;99.90;;;;;;5035365;28;20029;-91
2024/02/11 04:33:46;;;;;;;3.50;2.20;;;6.50;99.90;;;;;;5037991;28;20025;-92
2024/02/11 04:36:18;;;;;;;5.05;2.65;;;6.50;99.90;;;;;;5030215;28;20049;-91
2024/02/11 04:38:45;;;;;;;3.10;1.95;;;6.50;99.90;;;;;;5019579;28;20502;-91
2024/02/11 04:41:10;;;;;;;5.03;2.65;;;6.40;99.90;;;;;;5036814;28;20057;-91
2024/02/11 04:43:36;;;;;;;2.58;1.58;;;6.40;99.90;;;;;;5019823;28;20056;-90
2024/02/11 04:46:03;;;;;;;4.10;2.60;;;6.40;99.90;;;;;;5036446;28;20152;-92
2024/02/11 04:48:32;;;;;;;4.07;2.05;;;6.40;99.90;;;;;;5010060;28;20026;-91
2024/02/11 04:51:00;;;;;;;5.22;2.78;;;6.40;99.90;;;;;;5025814;28;20029;-91
2024/02/11 04:53:30;;;;;;;7.30;3.22;;;6.40;99.90;;;;;;5036303;28;20472;-91
2024/02/11 04:55:57;;;;;;;4.72;3.47;;;6.40;99.90;;;;;;5020281;28;20522;-93
2024/02/11 04:58:26;;;;;;;3.33;1.90;;;6.30;99.90;;;;;;5038398;28;20029;-91
2024/02/11 05:00:53;;;;;;;4.20;1.67;;;6.40;99.90;;;;;;5028989;28;20033;-92
2024/02/11 05:03:19;;;;;;;3.20;1.98;;;6.40;99.90;;;;;;5028366;28;20032;-92
2024/02/11 05:05:46;;;;;;;3.40;2.30;;;6.40;99.90;;;;;;5039384;28;20025;-93
2024/02/11 05:08:16;;;;;;;4.05;2.70;;;6.40;99.90;;;;;;5020378;28;20087;-90
2024/02/11 05:10:43;;;;;;;3.03;2.20;;;6.40;99.90;;;;;;5019462;28;20101;-90
2024/02/11 05:13:11;;;;;;;4.43;2.33;;;6.40;99.90;;;;;;5037622;28;20136;-91
2024/02/11 05:15:48;;;;;;;4.20;2.28;;;6.40;99.90;;;;;;5031415;28;20504;-91
2024/02/11 05:18:15;;;;;;;3.15;2.65;;;6.40;99.90;;;;;;5036361;28;20026;-93
2024/02/11 05:20:42;;;;;;;2.78;1.77;;;6.40;99.90;;;;;;5045933;28;20056;-91
2024/02/11 05:23:10;;;;;;;3.78;2.53;;;6.40;99.90;;;;;;5041338;28;20036;-93
2024/02/11 05:25:38;;;;;;;3.80;2.05;;;6.40;99.90;;;;;;5021787;28;20082;-91
2024/02/11 05:28:09;;;;;;;3.53;1.92;;;6.30;99.90;;;;;;5038122;28;20048;-91
2024/02/11 05:30:42;;;;;;;3.38;1.92;;;6.30;99.90;;;;;;5027369;28;20044;-92
2024/02/11 05:33:18;;;;;;;5.38;2.80;;;6.30;99.90;;;;;;5033563;28;20017;-91
2024/02/11 05:35:44;;;;;;;2.92;1.73;;;6.30;99.90;;;;;;5022508;28;20025;-91
2024/02/11 05:38:10;;;;;;;5.13;2.55;;;6.40;99.90;;;;;;5037310;28;20575;-91
2024/02/11 05:40:41;;;;;;;3.28;2.28;;;6.40;99.90;;;;;;5035824;28;20044;-91
2024/02/11 05:43:08;;;;;;;2.85;2.20;;;6.40;99.90;;;;;;5039177;28;20021;-90
2024/02/11 05:45:38;;;;;;;5.88;2.75;;;6.30;99.90;;;;;;5037025;28;20025;-92
2024/02/11 05:48:04;;;;;;;3.13;2.05;;;6.30;99.90;;;;;;5037761;28;20037;-91
2024/02/11 05:50:30;;;;;;;3.72;1.98;;;6.30;99.90;;;;;;5038758;28;20609;-91
2024/02/11 05:52:57;;;;;;;4.20;2.47;;;6.40;99.90;;;;;;5039506;28;20049;-91
2024/02/11 05:55:22;;;;;;;3.80;1.80;;;6.30;99.90;;;;;;5022702;28;20022;-92
2024/02/11 05:57:50;;;;;;;5.07;3.20;;;6.40;99.90;;;;;;5036951;28;20061;-93
2024/02/11 06:00:20;;;;;;;3.92;2.40;;;6.30;99.90;;;;;;5040899;28;20094;-91
2024/02/11 06:02:49;;;;;;;3.92;2.38;;;6.30;99.90;;;;;;5029181;28;20033;-91
2024/02/11 06:05:15;;;;;;;3.17;1.75;;;6.30;99.90;;;;;;5034091;28;20056;-91
2024/02/11 06:07:51;;;;;;;4.40;2.47;;;6.30;99.90;;;;;;5038431;28;20038;-92
2024/02/11 06:10:20;;;;;;;3.70;2.55;;;6.30;99.90;;;;;;5038491;28;20102;-92
2024/02/11 06:12:46;;;;;;;4.85;2.42;;;6.30;99.90;;;;;;5037713;28;20523;-92
2024/02/11 06:15:14;;;;;;;4.45;2.40;;;6.30;99.90;;;;;;5036964;28;20029;-92
2024/02/11 06:17:41;;;;;;;4.97;2.40;;;6.40;99.90;;;;;;5019251;28;20053;-93
2024/02/11 06:20:13;;;;;;;6.10;2.67;;;6.40;99.90;;;;;;5036587;28;20053;-90
2024/02/11 06:22:39;;;;;;;5.40;3.67;;;6.40;99.90;;;;;;5036186;28;20029;-91
2024/02/11 06:25:05;;;;;;;6.00;3.05;;;6.40;99.90;;;;;;5029978;28;20403;-92
2024/02/11 06:27:32;;;;;;;5.40;3.28;;;6.40;99.90;;;;;;5038785;28;20035;-92
2024/02/11 06:29:58;;;;;;;5.95;2.65;;;6.40;99.90;;;;;;5031620;28;20022;-92
2024/02/11 06:32:24;;;;;;;6.03;2.38;;;6.40;99.90;;;;;;5017668;28;20022;-92
2024/02/11 06:34:52;;;;;;;6.63;3.67;;;6.50;99.90;;;;;;5037913;28;20033;-91
2024/02/11 06:37:19;;;;;;;5.80;2.97;;;6.50;99.90;;;;;;5037403;28;20105;-92
2024/02/11 06:39:44;;;;;;;6.40;3.42;;;6.50;99.90;;;;;;5038169;28;20457;-92
2024/02/11 06:42:10;;;;;;;9.48;3.78;;;6.50;99.90;;;;;;5037403;28;20029;-91
2024/02/11 06:44:38;;;;;;;8.60;4.80;;;6.50;99.90;;;;;;5020194;28;20025;-93
2024/02/11 06:47:14;;;;;;;;;;;6.50;99.90;;;;;;5034229;28;20069;-92
2024/02/11 06:49:40;;;;;;;10.50;4.05;;;6.50;99.90;;;;;;5030023;28;20582;-91
2024/02/11 06:52:09;;;;;;;8.68;3.85;;;6.50;99.90;;;;;;5036622;28;20094;-92
2024/02/11 06:54:37;;;;;;;10.13;4.28;;;6.50;99.90;;;;;;5034184;28;20045;-91
2024/02/11 06:57:03;;;;;;;9.32;4.43;;;6.50;99.90;;;;;;5027925;28;20025;-91
2024/02/11 06:59:29;;;;;;;10.75;5.57;;;6.50;99.90;;;;;;5009600;28;20081;-91
2024/02/11 07:01:56;;;;;;;11.32;4.03;;;6.50;99.90;;;;;;5036302;28;20021;-93
2024/02/11 07:04:23;;;;;;;11.35;4.75;;;6.50;99.90;;;;;;5018418;28;20488;-92
2024/02/11 07:06:48;;;;;;;9.07;4.93;;;6.50;99.90;;;;;;5030857;28;20105;-92
2024/02/11 07:09:17;;;;;;;9.90;4.40;;;6.60;99.90;;;;;;5032055;28;20061;-92
2024/02/11 07:11:43;;;;;;;10.30;4.43;;;6.50;99.90;;;;;;5032241;28;20048;-90
2024/02/11 07:14:09;;;;;;;12.32;5.90;;;6.60;99.90;;;;;;5030147;28;20071;-92
2024/02/11 07:16:39;;;;;;;12.48;5.10;;;6.60;99.90;;;;;;5034255;28;20014;-95
2024/02/11 07:19:07;;;;;;;11.52;6.05;;;6.60;99.90;;;;;;5013399;28;20388;-94
2024/02/11 07:21:41;;;;;;;10.27;4.80;;;6.60;99.90;;;;;;5032778;28;20022;-93
2024/02/11 07:24:08;;;;;;;9.77;5.97;;;6.60;99.90;;;;;;5045486;28;20034;-95
2024/02/11 07:26:34;;;;;;;14.15;5.78;;;6.60;99.90;;;;;;5030554;28;20038;-95
2024/02/11 07:29:00;;;;;;;8.90;4.25;;;6.60;99.90;;;;;;5046612;28;20018;-95
2024/02/11 07:31:27;;;;;;;15.63;5.47;;;6.60;99.90;;;;;;5045543;28;20044;-94
2024/02/11 07:33:53;;;;;;;11.70;4.90;;;6.70;99.90;;;;;;5051357;28;20051;-94
2024/02/11 07:36:19;;;;;;;16.67;6.57;;;6.70;99.90;;;;;;5035641;28;20041;-94
2024/02/11 07:38:47;;;;;;;15.52;7.20;;;6.70;99.90;;;;;;5047968;28;20018;-94
2024/02/11 07:41:13;;;;;;;12.65;4.47;;;6.70;99.90;;;;;;5045692;28;20021;-96
2024/02/11 07:43:41;;;;;;;11.75;5.85;;;6.70;99.90;;;;;;5056046;28;20013;-95
2024/02/11 07:46:11;;;;;;;14.18;5.55;;;6.70;99.90;;;;;;5106553;22;20020;-94
2024/02/11 07:48:38;;;;;;;13.18;5.65;;;6.80;99.90;;;;;;5038297;28;20042;-93
2024/02/11 07:51:09;;;;;;;11.13;4.63;;;6.80;99.90;;;;;;5054041;28;20030;-96
2024/02/11 07:53:43;;;;;;;11.40;5.03;;;6.80;99.90;;;;;;5057674;28;20017;-95
2024/02/11 07:56:25;;;;;;;17.40;6.20;;;6.80;99.90;;;;;;5062832;23;20032;-93
2024/02/11 07:58:54;;;;;;;11.98;5.43;;;6.90;99.90;;;;;;5045667;28;20033;-95
2024/02/11 08:01:20;;;;;;;12.80;5.50;;;6.90;99.90;;;;;;5068677;28;20017;-94
2024/02/11 08:03:47;;;;;;;14.30;6.20;;;6.90;99.90;;;;;;5057059;28;20101;-96
2024/02/11 08:06:23;;;;;;;13.25;5.13;;;7.00;99.90;;;;;;5053178;28;20005;-96
2024/02/11 08:09:09;;;;;;;11.57;5.53;;;6.90;99.90;;;;;;5056459;28;20047;-95
2024/02/11 08:11:47;;;;;;;25.75;6.57;;;7.00;99.90;;;;;;5058684;28;20096;-95
2024/02/11 08:14:17;;;;;;;12.20;5.13;;;7.00;99.90;;;;;;5044101;28;20021;-96
2024/02/11 08:16:48;;;;;;;10.23;4.68;;;7.00;99.90;;;;;;5054143;28;20056;-95
2024/02/11 08:19:14;;;;;;;13.90;5.18;;;7.10;99.90;;;;;;5076966;28;20062;-94
2024/02/11 08:21:40;;;;;;;15.63;6.07;;;7.10;99.90;;;;;;5054368;28;20029;-96
2024/02/11 08:24:06;;;;;;;14.50;5.57;;;7.10;99.90;;;;;;5059766;28;20081;-94
2024/02/11 08:26:47;;;;;;;8.40;5.22;;;7.10;99.90;;;;;;5059672;28;20022;-95
2024/02/11 08:29:15;;;;;;;9.40;4.75;;;7.20;99.90;;;;;;5033348;28;20009;-93
2024/02/11 08:31:51;;;;;;;16.80;6.35;;;7.20;99.90;;;;;;5039599;28;20044;-95
2024/02/11 08:34:23;;;;;;;13.35;4.40;;;7.20;99.90;;;;;;5028367;28;20029;-94
2024/02/11 08:36:53;;;;;;;10.35;4.72;;;7.20;99.90;;;;;;5070869;28;20020;-93
2024/02/11 08:39:25;;;;;;;14.98;5.47;;;7.20;99.90;;;;;;5070715;28;20055;-95
2024/02/11 08:42:25;;;;;;;12.63;4.93;;;7.30;99.90;;;;;;5058337;28;20033;-95
2024/02/11 08:45:19;;;;;;;11.43;4.60;;;7.40;99.90;;;;;;5074768;28;20021;-92
2024/02/11 08:48:03;;;;;;;15.90;4.72;;;7.40;99.90;;;;;;5056099;28;20032;-96
2024/02/11 08:51:07;;;;;;;9.18;4.63;;;7.40;99.90;;;;;;5056787;28;20014;-95
2024/02/11 08:53:45;;;;;;;11.13;5.45;;;7.50;99.90;;;;;;5070482;28;20031;-96
2024/02/11 08:56:17;;;;;;;11.80;4.88;;;7.50;99.90;;;;;;5049218;28;20041;-93
2024/02/11 08:58:59;;;;;;;11.73;6.10;;;7.60;99.90;;;;;;5070831;28;20044;-95
2024/02/11 09:01:25;;;;;;;15.57;5.10;;;7.60;99.90;;;;;;5064933;22;20053;-90
2024/02/11 09:03:51;;;;;;;14.23;5.15;;;7.60;99.90;;;;;;5063157;28;20040;-92
2024/02/11 09:09:39;;;;;;;9.40;4.05;;;7.60;99.90;;;;;;5050375;28;20052;-92
2024/02/11 09:12:09;;;;;;;14.95;5.45;;;7.70;99.90;;;;;;5028035;22;20041;-96
2024/02/11 09:14:38;;;;;;;13.77;5.55;;;7.80;99.90;;;;;;5002900;28;20081;-95
2024/02/11 09:17:08;;;;;;;18.13;5.88;;;7.80;99.90;;;;;;5015058;28;20140;-96
2024/02/11 09:19:34;;;;;;;14.23;6.35;;;7.80;99.90;;;;;;5018928;28;20039;-95
2024/02/11 09:22:05;;;;;;;11.07;5.25;;;7.90;99.90;;;;;;5000572;28;20036;-96
2024/02/11 09:24:34;;;;;;;13.38;5.35;;;7.90;99.90;;;;;;5014621;28;20038;-96
2024/02/11 09:27:02;;;;;;;10.50;4.82;;;7.90;99.90;;;;;;5014704;28;20053;-96
2024/02/11 09:29:30;;;;;;;11.15;5.72;;;7.90;99.90;;;;;;4998489;28;20034;-96
2024/02/11 09:31:56;;;;;;;11.90;4.88;;;8.00;99.90;;;;;;5001560;28;20020;-96
2024/02/11 09:34:23;;;;;;;13.93;6.05;;;7.90;99.90;;;;;;5016490;28;20089;-96
2024/02/11 09:36:57;;;;;;;12.23;4.88;;;7.90;99.90;;;;;;5020957;28;20030;-95
2024/02/11 09:39:24;;;;;;;14.27;5.55;;;7.90;99.90;;;;;;4985250;28;20038;-96
2024/02/11 09:41:50;;;;;;;11.27;5.82;;;7.90;99.90;;;;;;5021238;28;20006;-96
2024/02/11 09:44:22;;;;;;;12.73;5.97;;;7.90;99.90;;;;;;4995703;28;20025;-95
2024/02/11 09:46:51;;;;;;;13.32;4.78;;;7.80;99.90;;;;;;5008799;28;20041;-95
2024/02/11 09:49:24;;;;;;;11.07;4.68;;;7.80;99.90;;;;;;4993224;28;20041;-92
2024/02/11 09:51:57;;;;;;;14.20;5.07;;;7.90;99.90;;;;;;5010146;28;20631;-96
2024/02/11 09:54:27;;;;;;;12.10;5.15;;;7.90;99.90;;;;;;4993482;28;20030;-95
2024/02/11 09:56:55;;;;;;;13.80;5.68;;;7.90;99.90;;;;;;5009202;28;20048;-96
2024/02/11 09:59:35;;;;;;;10.73;5.25;;;8.00;99.90;;;;;;4997388;28;20026;-94
2024/02/11 10:02:11;;;;;;;12.52;5.20;;;8.00;99.90;;;;;;4976478;28;20072;-96
2024/02/11 10:04:41;;;;;;;14.43;5.95;;;8.10;99.90;;;;;;4992685;28;20039;-94
2024/02/11 10:07:27;;;;;;;11.75;5.63;;;8.20;99.90;;;;;;5002243;28;20040;-93
2024/02/11 10:09:59;;;;;;;14.48;5.25;;;8.20;99.90;;;;;;4985180;28;20046;-96
2024/02/11 10:12:26;;;;;;;13.15;4.60;;;8.20;99.90;;;;;;4994928;28;20022;-96
2024/02/11 10:14:52;;;;;;;10.73;4.78;;;8.20;99.90;;;;;;4998465;28;20026;-95
2024/02/11 10:17:19;;;;;;;10.55;4.72;;;8.20;99.90;;;;;;4999513;28;20065;-93
2024/02/11 10:19:45;;;;;;;12.73;4.82;;;8.20;99.90;;;;;;4987955;28;20025;-95
2024/02/11 10:22:12;;;;;;;11.32;5.03;;;8.20;99.90;;;;;;4992730;28;20030;-96
2024/02/11 10:24:45;;;;;;;14.20;4.72;;;8.20;99.90;;;;;;4996557;28;20162;-95
2024/02/11 10:27:14;;;;;;;13.48;5.88;;;8.30;99.90;;;;;;4999373;28;20042;-96
2024/02/11 10:29:50;;;;;;;7.90;4.18;;;8.40;99.90;;;;;;4995000;28;20436;-95
2024/02/11 10:32:25;;;;;;;10.57;5.72;;;8.50;99.90;;;;;;4999474;28;20034;-96
2024/02/11 10:35:01;;;;;;;15.48;4.63;;;8.50;99.90;;;;;;4985111;28;20029;-96
2024/02/11 10:37:30;;;;;;;14.15;4.65;;;8.50;99.90;;;;;;4979638;28;20033;-96
2024/02/11 10:40:19;;;;;;;11.43;4.90;;;8.50;99.90;;;;;;4996931;28;20041;-95
2024/02/11 10:42:51;;;;;;;8.95;4.82;;;8.50;99.90;;;;;;4991774;28;20112;-96
2024/02/11 10:45:27;;;;;;;15.18;6.43;;;8.60;99.90;;;;;;5009367;28;20077;-95
2024/02/11 10:48:14;;;;;;;11.60;3.67;;;8.60;99.90;;;;;;5018013;28;20030;-96
2024/02/11 10:51:48;;;;;;;11.45;4.65;;;8.60;99.90;;;;;;5003017;28;20046;-96
2024/02/11 10:55:06;;;;;;;11.38;5.63;;;8.70;99.90;;;;;;4923228;29;20099;-95
2024/02/11 10:58:05;;;;;;;7.53;4.30;;;8.80;99.90;;;;;;4916741;29;20067;-94
2024/02/11 11:01:09;;;;;;;12.43;4.85;;;8.80;99.90;;;;;;4921911;29;20068;-94
2024/02/11 11:04:27;;;;;;;9.63;5.32;;;8.90;99.90;;;;;;4898911;29;20036;-96
2024/02/11 11:07:02;;;;;;;10.02;4.72;;;9.00;99.90;;;;;;4921984;29;20044;-94
2024/02/11 11:09:38;;;;;;;11.60;4.60;;;9.00;99.90;;;;;;4916348;29;20044;-95
2024/02/11 11:12:14;;;;;;;6.88;3.75;;;9.20;99.90;;;;;;4971114;28;20130;-94
2024/02/11 11:14:55;;;;;;;9.40;3.90;;;9.30;99.90;;;;;;4962364;28;20070;-95
2024/02/11 11:17:25;;;;;;;9.88;3.55;;;9.40;99.90;;;;;;4960930;28;20038;-95
2024/02/11 11:20:12;;;;;;;13.50;3.83;;;9.50;99.90;;;;;;5013103;28;20053;-95
2024/02/11 11:23:00;;;;;;;10.80;3.63;;;9.50;99.90;;;;;;4993560;28;20098;-95
2024/02/11 11:25:32;;;;;;;9.32;3.13;;;9.40;99.90;;;;;;4994477;28;20118;-95
2024/02/11 11:28:19;;;;;;;7.72;3.42;;;9.50;99.90;;;;;;5008935;28;20018;-96
2024/02/11 11:31:02;;;;;;;7.60;3.30;;;9.30;99.00;;;;;;4997457;28;20049;-95
2024/02/11 11:33:34;;;;;;;9.27;3.92;;;9.40;99.50;;;;;;4996281;28;20090;-95
2024/02/11 11:36:33;;;;;;;7.75;3.55;;;9.40;99.90;;;;;;5016474;28;20083;-96
2024/02/11 11:39:12;;;;;;;9.77;3.47;;;9.60;99.30;;;;;;5002004;28;20034;-93
2024/02/11 11:41:39;;;;;;;9.40;2.83;;;9.60;98.30;;;;;;4996590;28;20050;-94
2024/02/11 11:44:05;;;;;;;7.80;4.05;;;9.50;98.70;;;;;;5006197;28;20022;-94
2024/02/11 11:46:32;;;;;;;10.70;3.95;;;9.40;99.20;;;;;;5027620;28;20497;-93
2024/02/11 11:48:58;;;;;;;8.75;4.15;;;9.40;99.80;;;;;;5018216;28;20026;-94
2024/02/11 11:51:24;;;;;;;5.78;3.20;;;9.30;98.90;;;;;;5009165;28;20081;-94
2024/02/11 11:53:53;;;;;;;10.65;4.03;;;9.30;99.30;;;;;;5010552;28;20026;-93
2024/02/11 11:56:20;;;;;;;7.35;2.80;;;9.30;99.00;;;;;;5014788;28;20062;-93
2024/02/11 11:58:52;;;;;;;5.60;2.92;;;9.30;99.90;;;;;;5003564;28;20027;-93
2024/02/11 12:01:22;;;;;;;6.38;3.05;;;9.40;99.70;;;;;;5016054;28;20022;-93
2024/02/11 12:03:49;;;;;;;9.20;4.32;;;9.40;98.80;;;;;;4997972;28;20026;-92
2024/02/11 12:06:15;;;;;;;7.47;3.80;;;9.40;99.90;;;;;;5011434;28;20026;-94
2024/02/11 12:08:40;;;;;;;5.38;2.97;;;9.40;99.00;;;;;;5004708;28;20512;-96
2024/02/11 12:11:11;;;;;;;7.13;3.15;;;9.50;98.90;;;;;;5004124;28;20034;-94
2024/02/11 12:13:38;;;;;;;6.00;3.58;;;9.40;98.60;;;;;;5006759;28;20203;-94
2024/02/11 12:16:06;;;;;;;6.20;2.78;;;9.50;98.50;;;;;;5004555;28;20108;-93
2024/02/11 12:18:34;;;;;;;7.10;3.25;;;9.50;98.40;;;;;;5021565;28;20025;-92
2024/02/11 12:21:01;;;;;;;9.05;3.00;;;9.50;98.10;;;;;;5008822;28;20519;-93
2024/02/11 12:23:26;;;;;;;7.15;4.13;;;9.50;97.60;;;;;;5004915;28;20033;-93
2024/02/11 12:25:59;;;;;;;7.68;3.67;;;9.50;98.30;;;;;;5008651;28;20488;-93
2024/02/11 12:28:25;;;;;;;6.88;3.33;;;9.60;98.40;;;;;;5018004;28;20033;-92
2024/02/11 12:30:51;;;;;;;5.65;3.55;;;9.70;97.60;;;;;;5001866;28;20425;-93
2024/02/11 12:33:17;;;;;;;5.35;2.50;;;9.70;96.40;;;;;;5002612;28;20029;-92
2024/02/11 12:35:44;;;;;;;3.58;2.33;;;9.70;95.90;;;;;;5008552;28;20034;-92
2024/02/11 12:38:11;;;;;;;5.25;2.88;;;9.70;96.10;;;;;;4984677;28;20029;-94
2024/02/11 12:40:37;;;;;;;6.32;2.50;;;9.70;95.80;;;;;;5003262;28;20026;-93
2024/02/11 12:43:08;;;;;;;7.57;3.30;;;9.70;95.10;;;;;;5003718;28;20105;-93
2024/02/11 12:45:34;;;;;;;6.30;3.58;;;9.70;95.10;;;;;;5011846;28;20517;-93
2024/02/11 12:47:59;;;;;;;4.65;2.53;;;9.70;96.70;;;;;;5003362;28;20070;-93
2024/02/11 12:50:26;;;;;;;5.30;3.10;;;9.70;96.50;;;;;;4994275;28;20440;-94
2024/02/11 12:52:52;;;;;;;6.43;2.38;;;9.80;96.60;;;;;;4981029;28;20033;-93
2024/02/11 12:55:19;;;;;;;4.90;2.20;;;9.80;96.30;;;;;;4999108;28;20051;-94
2024/02/11 12:57:45;;;;;;;4.43;2.15;;;9.80;95.30;;;;;;5002545;28;20086;-93
2024/02/11 13:00:13;;;;;;;3.47;1.83;;;9.80;94.90;;;;;;4985573;28;20366;-93
2024/02/11 13:02:42;;;;;;;6.35;2.30;;;9.80;94.70;;;;;;4988304;28;20027;-94
2024/02/11 13:05:12;;;;;;;6.63;2.47;;;9.80;95.20;;;;;;5003392;28;20040;-94
2024/02/11 13:07:40;;;;;;;4.78;2.97;;;9.90;94.90;;;;;;5010386;28;20026;-91
2024/02/11 13:10:10;;;;;;;5.43;1.95;;;9.90;93.90;;;;;;5002534;28;20086;-93
2024/02/11 13:12:39;;;;;;;6.88;1.88;;;9.90;92.40;;;;;;4986402;28;20038;-94
2024/02/11 13:15:10;;;;;;;4.72;2.83;;;10.00;92.30;;;;;;4985870;28;20030;-95